createdAt,value
2022-11-28T00:22:08.783Z,15
2022-11-28T00:50:52.912Z,20
2022-11-28T01:19:08.570Z,14
2022-11-28T01:47:14.273Z,13
2022-11-28T02:15:58.760Z,14
2022-11-28T02:44:44.261Z,14
2022-11-28T03:13:12.662Z,13
2022-11-28T03:41:46.374Z,11
2022-11-28T04:10:47.029Z,11
2022-11-28T04:39:28.940Z,13
2022-11-28T05:08:07.399Z,13
2022-11-28T05:36:59.890Z,13
2022-11-28T06:05:43.629Z,13
2022-11-28T06:34:20.181Z,13
2022-11-28T07:03:15.768Z,14
2022-11-28T07:32:09.365Z,11
2022-11-28T08:00:45.967Z,14
2022-11-28T08:29:53.861Z,17
2022-11-28T08:58:24.173Z,14
2022-11-28T09:27:11.797Z,14
2022-11-28T09:56:06.802Z,17
2022-11-28T10:25:01.313Z,18
2022-11-28T10:53:52.416Z,18
2022-11-28T11:22:47.960Z,13
2022-11-28T11:51:39.343Z,17
2022-11-28T12:20:05.975Z,13
2022-11-28T12:48:57.732Z,13
2022-11-28T13:17:47.755Z,11
2022-11-28T13:46:03.615Z,13
2022-11-28T14:14:16.630Z,14
2022-11-28T14:42:59.920Z,17
2022-11-28T15:11:03.632Z,14
2022-11-28T15:39:27.345Z,20
2022-11-28T16:07:55.365Z,27
2022-11-28T16:36:05.604Z,26
2022-11-28T17:04:22.934Z,30
2022-11-28T17:33:11.692Z,30
2022-11-28T18:02:05.323Z,26
2022-11-28T18:30:54.920Z,25
2022-11-28T18:59:38.437Z,23
2022-11-28T19:28:38.505Z,20
2022-11-28T19:57:24.767Z,20
2022-11-28T20:26:10.332Z,21
2022-11-28T20:55:12.680Z,20
2022-11-28T21:24:11.505Z,18
2022-11-28T21:53:05.682Z,20
2022-11-28T22:22:04.223Z,20
2022-11-28T22:50:24.433Z,23
2022-11-28T23:19:18.194Z,20
2022-11-28T23:48:09.022Z,19
